sensor_id;sensor_type;location;lat;lon;timestamp;temperature;humidity
5697;DHT22;2873;50.966;7.210;2023-12-07T00:00:28;5.50;99.90
5697;DHT22;2873;50.966;7.210;2023-12-07T00:02:53;5.50;99.90
5697;DHT22;2873;50.966;7.210;2023-12-07T00:05:19;5.30;99.90
5697;DHT22;2873;50.966;7.210;2023-12-07T00:07:44;5.30;99.90
5697;DHT22;2873;50.966;7.210;2023-12-07T00:10:10;5.50;99.90
5697;DHT22;2873;50.966;7.210;2023-12-07T00:12:35;5.40;99.90
5697;DHT22;2873;50.966;7.210;2023-12-07T00:15:01;5.50;99.90
5697;DHT22;2873;50.966;7.210;2023-12-07T00:17:28;5.60;99.90
5697;DHT22;2873;50.966;7.210;2023-12-07T00:19:53;5.60;99.90
5697;DHT22;2873;50.966;7.210;2023-12-07T00:22:19;5.70;99.90
5697;DHT22;2873;50.966;7.210;2023-12-07T00:24:45;5.60;99.90
5697;DHT22;2873;50.966;7.210;2023-12-07T00:27:10;5.70;99.90
5697;DHT22;2873;50.966;7.210;2023-12-07T00:29:39;5.70;99.90
5697;DHT22;2873;50.966;7.210;2023-12-07T00:32:04;5.60;99.90
5697;DHT22;2873;50.966;7.210;2023-12-07T00:34:30;5.60;99.90
5697;DHT22;2873;50.966;7.210;2023-12-07T00:36:55;5.70;99.90
5697;DHT22;2873;50.966;7.210;2023-12-07T00:39:21;5.70;99.90
5697;DHT22;2873;50.966;7.210;2023-12-07T00:41:47;5.60;99.90
5697;DHT22;2873;50.966;7.210;2023-12-07T00:44:15;5.60;99.90
5697;DHT22;2873;50.966;7.210;2023-12-07T00:46:41;5.40;99.90
5697;DHT22;2873;50.966;7.210;2023-12-07T00:49:06;5.40;99.90
5697;DHT22;2873;50.966;7.210;2023-12-07T00:51:32;5.50;99.90
5697;DHT22;2873;50.966;7.210;2023-12-07T00:53:57;5.50;99.90
5697;DHT22;2873;50.966;7.210;2023-12-07T00:56:24;5.40;99.90
5697;DHT22;2873;50.966;7.210;2023-12-07T00:58:49;5.40;99.90
5697;DHT22;2873;50.966;7.210;2023-12-07T01:01:14;5.50;99.90
5697;DHT22;2873;50.966;7.210;2023-12-07T01:03:40;5.30;99.90
5697;DHT22;2873;50.966;7.210;2023-12-07T01:06:06;5.40;99.90
5697;DHT22;2873;50.966;7.210;2023-12-07T01:08:31;5.50;99.90
5697;DHT22;2873;50.966;7.210;2023-12-07T01:10:57;5.50;99.90
5697;DHT22;2873;50.966;7.210;2023-12-07T01:13:22;5.50;99.90
5697;DHT22;2873;50.966;7.210;2023-12-07T01:15:49;5.50;99.90
5697;DHT22;2873;50.966;7.210;2023-12-07T01:18:14;5.50;99.90
5697;DHT22;2873;50.966;7.210;2023-12-07T01:20:40;5.50;99.90
5697;DHT22;2873;50.966;7.210;2023-12-07T01:23:05;5.40;99.90
5697;DHT22;2873;50.966;7.210;2023-12-07T01:25:31;5.40;99.90
5697;DHT22;2873;50.966;7.210;2023-12-07T01:27:56;5.40;99.90
5697;DHT22;2873;50.966;7.210;2023-12-07T01:30:22;5.50;99.90
5697;DHT22;2873;50.966;7.210;2023-12-07T01:32:47;5.60;99.90
5697;DHT22;2873;50.966;7.210;2023-12-07T01:35:13;5.60;99.90
5697;DHT22;2873;50.966;7.210;2023-12-07T01:37:38;5.50;99.90
5697;DHT22;2873;50.966;7.210;2023-12-07T01:40:04;5.50;99.90
5697;DHT22;2873;50.966;7.210;2023-12-07T01:42:36;5.50;99.90
5697;DHT22;2873;50.966;7.210;2023-12-07T01:45:02;5.50;99.90
5697;DHT22;2873;50.966;7.210;2023-12-07T01:47:27;5.30;99.90
5697;DHT22;2873;50.966;7.210;2023-12-07T01:49:53;5.30;99.90
5697;DHT22;2873;50.966;7.210;2023-12-07T01:52:19;5.40;99.90
5697;DHT22;2873;50.966;7.210;2023-12-07T01:54:47;5.40;99.90
5697;DHT22;2873;50.966;7.210;2023-12-07T01:57:13;5.40;99.90
5697;DHT22;2873;50.966;7.210;2023-12-07T01:59:38;5.50;99.90
5697;DHT22;2873;50.966;7.210;2023-12-07T02:02:04;5.50;99.90
5697;DHT22;2873;50.966;7.210;2023-12-07T02:04:29;5.50;99.90
5697;DHT22;2873;50.966;7.210;2023-12-07T02:06:56;5.30;99.90
5697;DHT22;2873;50.966;7.210;2023-12-07T02:09:22;5.40;99.90
5697;DHT22;2873;50.966;7.210;2023-12-07T02:11:47;5.30;99.90
5697;DHT22;2873;50.966;7.210;2023-12-07T02:14:13;5.30;99.90
5697;DHT22;2873;50.966;7.210;2023-12-07T02:16:48;5.40;99.90
5697;DHT22;2873;50.966;7.210;2023-12-07T02:21:47;5.30;99.90
5697;DHT22;2873;50.966;7.210;2023-12-07T02:24:14;5.20;99.90
5697;DHT22;2873;50.966;7.210;2023-12-07T02:26:44;5.10;99.90
5697;DHT22;2873;50.966;7.210;2023-12-07T02:29:09;5.00;99.90
5697;DHT22;2873;50.966;7.210;2023-12-07T02:31:35;5.10;99.90
5697;DHT22;2873;50.966;7.210;2023-12-07T02:34:00;5.10;99.90
5697;DHT22;2873;50.966;7.210;2023-12-07T02:36:27;5.00;99.90
5697;DHT22;2873;50.966;7.210;2023-12-07T02:38:53;5.00;99.90
5697;DHT22;2873;50.966;7.210;2023-12-07T02:41:21;5.00;99.90
5697;DHT22;2873;50.966;7.210;2023-12-07T02:43:46;5.10;99.90
5697;DHT22;2873;50.966;7.210;2023-12-07T02:46:12;5.10;99.90
5697;DHT22;2873;50.966;7.210;2023-12-07T02:48:37;5.10;99.90
5697;DHT22;2873;50.966;7.210;2023-12-07T02:51:03;5.20;99.90
5697;DHT22;2873;50.966;7.210;2023-12-07T02:53:28;5.00;99.90
5697;DHT22;2873;50.966;7.210;2023-12-07T02:55:54;5.10;99.90
5697;DHT22;2873;50.966;7.210;2023-12-07T02:58:19;5.10;99.90
5697;DHT22;2873;50.966;7.210;2023-12-07T03:00:44;5.20;99.90
5697;DHT22;2873;50.966;7.210;2023-12-07T03:03:10;5.20;99.90
5697;DHT22;2873;50.966;7.210;2023-12-07T03:05:35;5.30;99.90
5697;DHT22;2873;50.966;7.210;2023-12-07T03:08:01;5.40;99.90
5697;DHT22;2873;50.966;7.210;2023-12-07T03:10:26;5.50;99.90
5697;DHT22;2873;50.966;7.210;2023-12-07T03:12:52;5.60;99.90
5697;DHT22;2873;50.966;7.210;2023-12-07T03:15:17;5.50;99.90
5697;DHT22;2873;50.966;7.210;2023-12-07T03:17:42;5.60;99.90
5697;DHT22;2873;50.966;7.210;2023-12-07T03:20:09;5.60;99.90
5697;DHT22;2873;50.966;7.210;2023-12-07T03:22:35;5.70;99.90
5697;DHT22;2873;50.966;7.210;2023-12-07T03:25:01;5.70;99.90
5697;DHT22;2873;50.966;7.210;2023-12-07T03:27:26;5.70;99.90
5697;DHT22;2873;50.966;7.210;2023-12-07T03:29:53;5.70;99.90
5697;DHT22;2873;50.966;7.210;2023-12-07T03:32:19;5.60;99.90
5697;DHT22;2873;50.966;7.210;2023-12-07T03:34:44;5.70;99.90
5697;DHT22;2873;50.966;7.210;2023-12-07T03:37:09;5.30;99.90
5697;DHT22;2873;50.966;7.210;2023-12-07T03:39:35;5.20;99.90
5697;DHT22;2873;50.966;7.210;2023-12-07T03:42:00;5.20;99.90
5697;DHT22;2873;50.966;7.210;2023-12-07T03:44:26;5.30;99.90
5697;DHT22;2873;50.966;7.210;2023-12-07T03:46:52;5.50;99.90
5697;DHT22;2873;50.966;7.210;2023-12-07T03:49:17;5.50;99.90
5697;DHT22;2873;50.966;7.210;2023-12-07T03:51:43;5.50;99.90
5697;DHT22;2873;50.966;7.210;2023-12-07T03:54:08;5.60;99.90
5697;DHT22;2873;50.966;7.210;2023-12-07T03:56:34;5.60;99.90
5697;DHT22;2873;50.966;7.210;2023-12-07T03:58:59;5.60;99.90
5697;DHT22;2873;50.966;7.210;2023-12-07T04:01:25;5.50;99.90
5697;DHT22;2873;50.966;7.210;2023-12-07T04:03:52;5.40;99.90
5697;DHT22;2873;50.966;7.210;2023-12-07T04:06:17;5.40;99.90
5697;DHT22;2873;50.966;7.210;2023-12-07T04:08:43;5.40;99.90
5697;DHT22;2873;50.966;7.210;2023-12-07T04:11:09;5.50;99.90
5697;DHT22;2873;50.966;7.210;2023-12-07T04:13:35;5.50;99.90
5697;DHT22;2873;50.966;7.210;2023-12-07T04:16:00;5.60;99.90
5697;DHT22;2873;50.966;7.210;2023-12-07T04:18:26;5.60;99.90
5697;DHT22;2873;50.966;7.210;2023-12-07T04:20:51;5.60;99.90
5697;DHT22;2873;50.966;7.210;2023-12-07T04:23:17;5.60;99.90
5697;DHT22;2873;50.966;7.210;2023-12-07T04:25:42;5.60;99.90
5697;DHT22;2873;50.966;7.210;2023-12-07T04:28:07;5.50;99.90
5697;DHT22;2873;50.966;7.210;2023-12-07T04:30:33;5.40;99.90
5697;DHT22;2873;50.966;7.210;2023-12-07T04:32:58;5.40;99.90
5697;DHT22;2873;50.966;7.210;2023-12-07T04:35:24;5.40;99.90
5697;DHT22;2873;50.966;7.210;2023-12-07T04:37:49;5.20;99.90
5697;DHT22;2873;50.966;7.210;2023-12-07T04:40:15;5.20;99.90
5697;DHT22;2873;50.966;7.210;2023-12-07T04:42:41;5.20;99.90
5697;DHT22;2873;50.966;7.210;2023-12-07T04:45:06;5.30;99.90
5697;DHT22;2873;50.966;7.210;2023-12-07T04:47:32;5.40;99.90
5697;DHT22;2873;50.966;7.210;2023-12-07T04:49:58;5.50;99.90
5697;DHT22;2873;50.966;7.210;2023-12-07T04:52:23;5.40;99.90
5697;DHT22;2873;50.966;7.210;2023-12-07T04:54:49;5.40;99.90
5697;DHT22;2873;50.966;7.210;2023-12-07T04:57:14;5.30;99.90
5697;DHT22;2873;50.966;7.210;2023-12-07T04:59:40;5.20;99.90
5697;DHT22;2873;50.966;7.210;2023-12-07T05:02:06;5.20;99.90
5697;DHT22;2873;50.966;7.210;2023-12-07T05:04:31;5.20;99.90
5697;DHT22;2873;50.966;7.210;2023-12-07T05:06:58;5.30;99.90
5697;DHT22;2873;50.966;7.210;2023-12-07T05:09:24;5.30;99.90
5697;DHT22;2873;50.966;7.210;2023-12-07T05:11:49;5.40;99.90
5697;DHT22;2873;50.966;7.210;2023-12-07T05:14:15;5.40;99.90
5697;DHT22;2873;50.966;7.210;2023-12-07T05:16:40;5.30;99.90
5697;DHT22;2873;50.966;7.210;2023-12-07T05:19:06;5.30;99.90
5697;DHT22;2873;50.966;7.210;2023-12-07T05:21:31;5.10;99.90
5697;DHT22;2873;50.966;7.210;2023-12-07T05:23:57;5.00;99.90
5697;DHT22;2873;50.966;7.210;2023-12-07T05:26:22;4.80;99.90
5697;DHT22;2873;50.966;7.210;2023-12-07T05:28:48;4.90;99.90
5697;DHT22;2873;50.966;7.210;2023-12-07T05:31:17;4.90;99.90
5697;DHT22;2873;50.966;7.210;2023-12-07T05:33:42;4.60;99.90
5697;DHT22;2873;50.966;7.210;2023-12-07T05:36:08;4.70;99.90
5697;DHT22;2873;50.966;7.210;2023-12-07T05:38:34;4.60;99.90
5697;DHT22;2873;50.966;7.210;2023-12-07T05:40:59;4.60;99.90
5697;DHT22;2873;50.966;7.210;2023-12-07T05:43:24;4.50;99.90
5697;DHT22;2873;50.966;7.210;2023-12-07T05:45:51;4.60;99.90
5697;DHT22;2873;50.966;7.210;2023-12-07T05:48:16;4.60;99.90
5697;DHT22;2873;50.966;7.210;2023-12-07T05:50:42;4.60;99.90
5697;DHT22;2873;50.966;7.210;2023-12-07T05:53:07;4.40;99.90
5697;DHT22;2873;50.966;7.210;2023-12-07T05:55:34;4.40;99.90
5697;DHT22;2873;50.966;7.210;2023-12-07T05:57:59;4.50;99.90
5697;DHT22;2873;50.966;7.210;2023-12-07T06:00:25;4.50;99.90
5697;DHT22;2873;50.966;7.210;2023-12-07T06:02:50;4.50;99.90
5697;DHT22;2873;50.966;7.210;2023-12-07T06:05:16;4.50;99.90
5697;DHT22;2873;50.966;7.210;2023-12-07T06:07:41;4.60;99.90
5697;DHT22;2873;50.966;7.210;2023-12-07T06:10:07;4.40;99.90
5697;DHT22;2873;50.966;7.210;2023-12-07T06:12:32;4.40;99.90
5697;DHT22;2873;50.966;7.210;2023-12-07T06:14:58;4.30;99.90
5697;DHT22;2873;50.966;7.210;2023-12-07T06:17:23;4.40;99.90
5697;DHT22;2873;50.966;7.210;2023-12-07T06:19:49;4.30;99.90
5697;DHT22;2873;50.966;7.210;2023-12-07T06:22:14;4.20;99.90
5697;DHT22;2873;50.966;7.210;2023-12-07T06:24:40;4.40;99.90
5697;DHT22;2873;50.966;7.210;2023-12-07T06:27:05;4.40;99.90
5697;DHT22;2873;50.966;7.210;2023-12-07T06:29:31;4.40;99.90
5697;DHT22;2873;50.966;7.210;2023-12-07T06:31:57;4.30;99.90
5697;DHT22;2873;50.966;7.210;2023-12-07T06:34:22;4.20;99.90
5697;DHT22;2873;50.966;7.210;2023-12-07T06:36:48;4.20;99.90
5697;DHT22;2873;50.966;7.210;2023-12-07T06:39:13;4.00;99.90
5697;DHT22;2873;50.966;7.210;2023-12-07T06:41:39;3.90;99.90
5697;DHT22;2873;50.966;7.210;2023-12-07T06:44:06;3.90;99.90
5697;DHT22;2873;50.966;7.210;2023-12-07T06:46:31;3.70;99.90
5697;DHT22;2873;50.966;7.210;2023-12-07T06:48:57;3.60;99.90
5697;DHT22;2873;50.966;7.210;2023-12-07T06:51:22;3.70;99.90
5697;DHT22;2873;50.966;7.210;2023-12-07T06:53:48;3.60;99.90
5697;DHT22;2873;50.966;7.210;2023-12-07T06:56:13;3.60;99.90
5697;DHT22;2873;50.966;7.210;2023-12-07T06:58:40;3.50;99.90
5697;DHT22;2873;50.966;7.210;2023-12-07T07:01:05;3.50;99.90
5697;DHT22;2873;50.966;7.210;2023-12-07T07:03:31;3.50;99.90
5697;DHT22;2873;50.966;7.210;2023-12-07T07:05:56;3.50;99.90
5697;DHT22;2873;50.966;7.210;2023-12-07T07:08:22;3.50;99.90
5697;DHT22;2873;50.966;7.210;2023-12-07T07:10:47;3.50;99.90
5697;DHT22;2873;50.966;7.210;2023-12-07T07:13:13;3.60;99.90
5697;DHT22;2873;50.966;7.210;2023-12-07T07:15:41;3.70;99.90
5697;DHT22;2873;50.966;7.210;2023-12-07T07:18:07;3.70;99.90
5697;DHT22;2873;50.966;7.210;2023-12-07T07:20:33;3.70;99.90
5697;DHT22;2873;50.966;7.210;2023-12-07T07:22:59;3.70;99.90
5697;DHT22;2873;50.966;7.210;2023-12-07T07:25:24;3.90;99.90
5697;DHT22;2873;50.966;7.210;2023-12-07T07:27:50;3.90;99.90
5697;DHT22;2873;50.966;7.210;2023-12-07T07:30:16;3.90;99.90
5697;DHT22;2873;50.966;7.210;2023-12-07T07:32:41;4.00;99.90
5697;DHT22;2873;50.966;7.210;2023-12-07T07:35:07;4.00;99.90
5697;DHT22;2873;50.966;7.210;2023-12-07T07:37:33;4.00;99.90
5697;DHT22;2873;50.966;7.210;2023-12-07T07:39:58;3.70;99.90
5697;DHT22;2873;50.966;7.210;2023-12-07T07:42:25;3.80;99.90
5697;DHT22;2873;50.966;7.210;2023-12-07T07:44:50;3.60;99.90
5697;DHT22;2873;50.966;7.210;2023-12-07T07:47:16;3.50;99.90
5697;DHT22;2873;50.966;7.210;2023-12-07T07:49:41;3.40;99.90
5697;DHT22;2873;50.966;7.210;2023-12-07T07:52:07;3.50;99.90
5697;DHT22;2873;50.966;7.210;2023-12-07T07:54:33;3.50;99.90
5697;DHT22;2873;50.966;7.210;2023-12-07T07:56:58;3.50;99.90
5697;DHT22;2873;50.966;7.210;2023-12-07T07:59:23;3.50;99.90
5697;DHT22;2873;50.966;7.210;2023-12-07T08:01:49;3.50;99.90
5697;DHT22;2873;50.966;7.210;2023-12-07T08:04:15;3.40;99.90
5697;DHT22;2873;50.966;7.210;2023-12-07T08:06:40;3.40;99.90
5697;DHT22;2873;50.966;7.210;2023-12-07T08:09:07;3.40;99.90
5697;DHT22;2873;50.966;7.210;2023-12-07T08:11:33;3.40;99.90
5697;DHT22;2873;50.966;7.210;2023-12-07T08:13:58;3.50;99.90
5697;DHT22;2873;50.966;7.210;2023-12-07T08:16:24;3.50;99.90
5697;DHT22;2873;50.966;7.210;2023-12-07T08:18:49;3.50;99.90
5697;DHT22;2873;50.966;7.210;2023-12-07T08:21:18;3.40;99.90
5697;DHT22;2873;50.966;7.210;2023-12-07T08:23:44;3.50;99.90
5697;DHT22;2873;50.966;7.210;2023-12-07T08:26:09;3.30;99.90
5697;DHT22;2873;50.966;7.210;2023-12-07T08:28:35;3.40;99.90
5697;DHT22;2873;50.966;7.210;2023-12-07T08:31:02;3.40;99.90
5697;DHT22;2873;50.966;7.210;2023-12-07T08:33:27;3.50;99.90
5697;DHT22;2873;50.966;7.210;2023-12-07T08:35:53;3.60;99.90
5697;DHT22;2873;50.966;7.210;2023-12-07T08:38:20;3.50;99.90
5697;DHT22;2873;50.966;7.210;2023-12-07T08:40:47;3.70;99.90
5697;DHT22;2873;50.966;7.210;2023-12-07T08:43:12;3.80;99.90
5697;DHT22;2873;50.966;7.210;2023-12-07T08:45:38;3.90;99.90
5697;DHT22;2873;50.966;7.210;2023-12-07T08:48:03;3.90;99.90
5697;DHT22;2873;50.966;7.210;2023-12-07T08:50:29;3.80;99.90
5697;DHT22;2873;50.966;7.210;2023-12-07T08:52:55;4.00;99.90
5697;DHT22;2873;50.966;7.210;2023-12-07T08:55:20;3.90;99.90
5697;DHT22;2873;50.966;7.210;2023-12-07T08:57:46;4.00;99.90
5697;DHT22;2873;50.966;7.210;2023-12-07T09:00:11;4.20;99.90
5697;DHT22;2873;50.966;7.210;2023-12-07T09:02:40;4.10;99.90
5697;DHT22;2873;50.966;7.210;2023-12-07T09:05:05;4.20;99.90
5697;DHT22;2873;50.966;7.210;2023-12-07T09:07:31;4.40;99.90
5697;DHT22;2873;50.966;7.210;2023-12-07T09:09:56;4.30;99.90
5697;DHT22;2873;50.966;7.210;2023-12-07T09:12:22;4.30;99.90
5697;DHT22;2873;50.966;7.210;2023-12-07T09:14:47;4.50;99.90
5697;DHT22;2873;50.966;7.210;2023-12-07T09:17:13;4.40;99.90
5697;DHT22;2873;50.966;7.210;2023-12-07T09:19:38;4.30;99.90
5697;DHT22;2873;50.966;7.210;2023-12-07T09:22:04;4.10;99.90
5697;DHT22;2873;50.966;7.210;2023-12-07T09:24:29;4.10;99.90
5697;DHT22;2873;50.966;7.210;2023-12-07T09:26:55;4.10;99.90
5697;DHT22;2873;50.966;7.210;2023-12-07T09:29:20;3.90;99.90
5697;DHT22;2873;50.966;7.210;2023-12-07T09:31:46;3.90;99.90
5697;DHT22;2873;50.966;7.210;2023-12-07T09:34:11;3.80;99.90
5697;DHT22;2873;50.966;7.210;2023-12-07T09:36:42;3.60;99.90
5697;DHT22;2873;50.966;7.210;2023-12-07T09:39:08;3.50;99.90
5697;DHT22;2873;50.966;7.210;2023-12-07T09:41:35;3.60;99.90
5697;DHT22;2873;50.966;7.210;2023-12-07T09:44:01;3.30;99.90
5697;DHT22;2873;50.966;7.210;2023-12-07T09:46:27;3.50;99.90
5697;DHT22;2873;50.966;7.210;2023-12-07T09:48:53;3.50;99.90
5697;DHT22;2873;50.966;7.210;2023-12-07T09:51:19;3.40;99.90
5697;DHT22;2873;50.966;7.210;2023-12-07T09:53:45;3.40;99.90
5697;DHT22;2873;50.966;7.210;2023-12-07T09:56:13;3.50;99.90
5697;DHT22;2873;50.966;7.210;2023-12-07T09:58:39;3.40;99.90
5697;DHT22;2873;50.966;7.210;2023-12-07T10:01:05;3.40;99.90
5697;DHT22;2873;50.966;7.210;2023-12-07T10:03:30;3.40;99.90
5697;DHT22;2873;50.966;7.210;2023-12-07T10:05:56;3.20;99.90
5697;DHT22;2873;50.966;7.210;2023-12-07T10:08:28;3.30;99.90
5697;DHT22;2873;50.966;7.210;2023-12-07T10:11:01;3.30;99.90
5697;DHT22;2873;50.966;7.210;2023-12-07T10:13:28;3.40;99.90
5697;DHT22;2873;50.966;7.210;2023-12-07T10:16:04;3.40;99.90
5697;DHT22;2873;50.966;7.210;2023-12-07T10:18:30;3.40;99.90
5697;DHT22;2873;50.966;7.210;2023-12-07T10:20:55;3.50;99.90
5697;DHT22;2873;50.966;7.210;2023-12-07T10:23:21;3.50;99.90
5697;DHT22;2873;50.966;7.210;2023-12-07T10:25:47;3.50;99.90
5697;DHT22;2873;50.966;7.210;2023-12-07T10:28:12;3.40;99.90
5697;DHT22;2873;50.966;7.210;2023-12-07T10:30:41;3.50;99.90
5697;DHT22;2873;50.966;7.210;2023-12-07T10:33:07;3.40;99.90
5697;DHT22;2873;50.966;7.210;2023-12-07T10:35:32;3.40;99.90
5697;DHT22;2873;50.966;7.210;2023-12-07T10:37:58;3.40;99.90
5697;DHT22;2873;50.966;7.210;2023-12-07T10:40:23;3.40;99.90
5697;DHT22;2873;50.966;7.210;2023-12-07T10:42:49;3.10;99.90
5697;DHT22;2873;50.966;7.210;2023-12-07T10:45:18;3.20;99.90
5697;DHT22;2873;50.966;7.210;2023-12-07T10:47:44;3.30;99.90
5697;DHT22;2873;50.966;7.210;2023-12-07T10:50:10;3.20;99.90
5697;DHT22;2873;50.966;7.210;2023-12-07T10:52:51;3.30;99.90
5697;DHT22;2873;50.966;7.210;2023-12-07T10:55:20;3.30;99.90
5697;DHT22;2873;50.966;7.210;2023-12-07T10:57:46;3.20;99.90
5697;DHT22;2873;50.966;7.210;2023-12-07T11:00:12;3.30;99.90
5697;DHT22;2873;50.966;7.210;2023-12-07T11:02:37;3.30;99.90
5697;DHT22;2873;50.966;7.210;2023-12-07T11:05:03;3.30;99.90
5697;DHT22;2873;50.966;7.210;2023-12-07T11:07:32;3.40;99.90
5697;DHT22;2873;50.966;7.210;2023-12-07T11:10:03;3.50;99.90
5697;DHT22;2873;50.966;7.210;2023-12-07T11:12:33;3.40;99.90
5697;DHT22;2873;50.966;7.210;2023-12-07T11:15:00;3.50;99.90
5697;DHT22;2873;50.966;7.210;2023-12-07T11:17:26;3.40;99.90
5697;DHT22;2873;50.966;7.210;2023-12-07T11:19:51;3.40;99.90
5697;DHT22;2873;50.966;7.210;2023-12-07T11:22:17;3.60;99.90
5697;DHT22;2873;50.966;7.210;2023-12-07T11:24:53;3.50;99.90
5697;DHT22;2873;50.966;7.210;2023-12-07T11:27:19;3.70;99.90
5697;DHT22;2873;50.966;7.210;2023-12-07T11:29:45;3.70;99.90
5697;DHT22;2873;50.966;7.210;2023-12-07T11:32:11;3.60;99.90
5697;DHT22;2873;50.966;7.210;2023-12-07T11:34:37;3.70;99.90
5697;DHT22;2873;50.966;7.210;2023-12-07T11:37:04;3.80;99.90
5697;DHT22;2873;50.966;7.210;2023-12-07T11:39:34;3.70;99.90
5697;DHT22;2873;50.966;7.210;2023-12-07T11:42:21;4.00;99.90
5697;DHT22;2873;50.966;7.210;2023-12-07T11:44:48;4.20;99.90
5697;DHT22;2873;50.966;7.210;2023-12-07T11:47:15;4.10;99.90
5697;DHT22;2873;50.966;7.210;2023-12-07T11:49:42;4.40;99.90
5697;DHT22;2873;50.966;7.210;2023-12-07T11:52:18;4.40;99.90
5697;DHT22;2873;50.966;7.210;2023-12-07T11:54:44;4.60;99.90
5697;DHT22;2873;50.966;7.210;2023-12-07T11:57:10;4.90;99.90
5697;DHT22;2873;50.966;7.210;2023-12-07T11:59:35;5.00;99.90
5697;DHT22;2873;50.966;7.210;2023-12-07T12:02:01;5.10;99.90
5697;DHT22;2873;50.966;7.210;2023-12-07T12:04:29;5.30;99.90
5697;DHT22;2873;50.966;7.210;2023-12-07T12:06:55;5.40;99.90
5697;DHT22;2873;50.966;7.210;2023-12-07T12:09:20;5.30;99.90
5697;DHT22;2873;50.966;7.210;2023-12-07T12:11:46;5.30;99.90
5697;DHT22;2873;50.966;7.210;2023-12-07T12:14:15;5.40;99.90
5697;DHT22;2873;50.966;7.210;2023-12-07T12:16:41;5.50;99.90
5697;DHT22;2873;50.966;7.210;2023-12-07T12:19:07;5.60;99.90
5697;DHT22;2873;50.966;7.210;2023-12-07T12:21:35;5.40;99.90
5697;DHT22;2873;50.966;7.210;2023-12-07T12:24:07;5.60;99.90
5697;DHT22;2873;50.966;7.210;2023-12-07T12:26:33;5.70;99.90
5697;DHT22;2873;50.966;7.210;2023-12-07T12:28:59;5.90;99.90
5697;DHT22;2873;50.966;7.210;2023-12-07T12:31:25;5.80;99.90
5697;DHT22;2873;50.966;7.210;2023-12-07T12:33:51;5.90;99.90
5697;DHT22;2873;50.966;7.210;2023-12-07T12:36:16;6.00;99.90
5697;DHT22;2873;50.966;7.210;2023-12-07T12:38:47;6.30;99.90
5697;DHT22;2873;50.966;7.210;2023-12-07T12:41:12;6.40;99.90
5697;DHT22;2873;50.966;7.210;2023-12-07T12:43:38;6.40;99.90
5697;DHT22;2873;50.966;7.210;2023-12-07T12:46:03;6.40;99.90
5697;DHT22;2873;50.966;7.210;2023-12-07T12:48:29;6.40;99.90
5697;DHT22;2873;50.966;7.210;2023-12-07T12:50:55;6.80;99.90
5697;DHT22;2873;50.966;7.210;2023-12-07T12:53:20;6.70;99.90
5697;DHT22;2873;50.966;7.210;2023-12-07T12:55:46;6.80;99.90
5697;DHT22;2873;50.966;7.210;2023-12-07T12:58:12;6.80;99.90
5697;DHT22;2873;50.966;7.210;2023-12-07T13:00:38;6.60;99.90
5697;DHT22;2873;50.966;7.210;2023-12-07T13:03:04;6.80;99.90
5697;DHT22;2873;50.966;7.210;2023-12-07T13:05:30;6.90;99.90
5697;DHT22;2873;50.966;7.210;2023-12-07T13:07:55;7.00;99.90
5697;DHT22;2873;50.966;7.210;2023-12-07T13:10:21;6.90;99.90
5697;DHT22;2873;50.966;7.210;2023-12-07T13:12:46;6.90;99.90
5697;DHT22;2873;50.966;7.210;2023-12-07T13:15:12;7.00;99.90
5697;DHT22;2873;50.966;7.210;2023-12-07T13:17:39;7.10;99.90
5697;DHT22;2873;50.966;7.210;2023-12-07T13:20:08;6.90;99.90
5697;DHT22;2873;50.966;7.210;2023-12-07T13:22:38;6.80;99.90
5697;DHT22;2873;50.966;7.210;2023-12-07T13:25:04;6.60;99.90
5697;DHT22;2873;50.966;7.210;2023-12-07T13:27:31;6.80;99.90
5697;DHT22;2873;50.966;7.210;2023-12-07T13:29:57;6.60;99.90
5697;DHT22;2873;50.966;7.210;2023-12-07T13:32:22;6.60;99.90
5697;DHT22;2873;50.966;7.210;2023-12-07T13:34:48;6.50;99.90
5697;DHT22;2873;50.966;7.210;2023-12-07T13:37:14;6.50;99.90
5697;DHT22;2873;50.966;7.210;2023-12-07T13:39:40;6.50;99.90
5697;DHT22;2873;50.966;7.210;2023-12-07T13:42:08;6.40;99.90
5697;DHT22;2873;50.966;7.210;2023-12-07T13:44:35;6.70;99.90
5697;DHT22;2873;50.966;7.210;2023-12-07T13:47:00;6.90;99.90
5697;DHT22;2873;50.966;7.210;2023-12-07T13:49:26;6.90;99.90
5697;DHT22;2873;50.966;7.210;2023-12-07T13:51:51;6.80;99.90
5697;DHT22;2873;50.966;7.210;2023-12-07T13:54:17;6.90;99.90
5697;DHT22;2873;50.966;7.210;2023-12-07T13:56:42;6.90;99.90
5697;DHT22;2873;50.966;7.210;2023-12-07T13:59:08;6.90;99.90
5697;DHT22;2873;50.966;7.210;2023-12-07T14:01:36;6.90;99.90
5697;DHT22;2873;50.966;7.210;2023-12-07T14:04:02;6.90;99.90
5697;DHT22;2873;50.966;7.210;2023-12-07T14:06:28;6.90;99.90
5697;DHT22;2873;50.966;7.210;2023-12-07T14:08:53;6.80;99.90
5697;DHT22;2873;50.966;7.210;2023-12-07T14:11:19;6.80;99.90
5697;DHT22;2873;50.966;7.210;2023-12-07T14:13:44;6.60;99.90
5697;DHT22;2873;50.966;7.210;2023-12-07T14:16:14;6.80;99.90
5697;DHT22;2873;50.966;7.210;2023-12-07T14:18:39;6.70;99.90
5697;DHT22;2873;50.966;7.210;2023-12-07T14:21:05;6.50;99.90
5697;DHT22;2873;50.966;7.210;2023-12-07T14:23:30;6.70;99.90
5697;DHT22;2873;50.966;7.210;2023-12-07T14:25:56;6.30;99.90
5697;DHT22;2873;50.966;7.210;2023-12-07T14:28:25;6.50;99.90
5697;DHT22;2873;50.966;7.210;2023-12-07T14:30:53;6.40;99.90
5697;DHT22;2873;50.966;7.210;2023-12-07T14:33:24;6.20;99.90
5697;DHT22;2873;50.966;7.210;2023-12-07T14:35:50;6.10;99.90
5697;DHT22;2873;50.966;7.210;2023-12-07T14:38:15;5.90;99.90
5697;DHT22;2873;50.966;7.210;2023-12-07T14:40:41;5.90;99.90
5697;DHT22;2873;50.966;7.210;2023-12-07T14:43:06;5.80;99.90
5697;DHT22;2873;50.966;7.210;2023-12-07T14:45:31;5.80;99.90
5697;DHT22;2873;50.966;7.210;2023-12-07T14:47:57;5.70;99.90
5697;DHT22;2873;50.966;7.210;2023-12-07T14:50:23;5.80;99.90
5697;DHT22;2873;50.966;7.210;2023-12-07T14:52:48;5.70;99.90
5697;DHT22;2873;50.966;7.210;2023-12-07T14:55:14;5.60;99.90
5697;DHT22;2873;50.966;7.210;2023-12-07T14:57:39;5.50;99.90
5697;DHT22;2873;50.966;7.210;2023-12-07T15:00:05;5.60;99.90
5697;DHT22;2873;50.966;7.210;2023-12-07T15:02:31;5.40;99.90
5697;DHT22;2873;50.966;7.210;2023-12-07T15:04:56;5.50;99.90
5697;DHT22;2873;50.966;7.210;2023-12-07T15:07:22;5.50;99.90
5697;DHT22;2873;50.966;7.210;2023-12-07T15:09:47;5.40;99.90
5697;DHT22;2873;50.966;7.210;2023-12-07T15:12:14;5.40;99.90
5697;DHT22;2873;50.966;7.210;2023-12-07T15:14:41;5.30;99.90
5697;DHT22;2873;50.966;7.210;2023-12-07T15:17:09;5.20;99.90
5697;DHT22;2873;50.966;7.210;2023-12-07T15:19:34;5.10;99.90
5697;DHT22;2873;50.966;7.210;2023-12-07T15:22:00;5.00;99.90
5697;DHT22;2873;50.966;7.210;2023-12-07T15:24:25;5.10;99.90
5697;DHT22;2873;50.966;7.210;2023-12-07T15:26:51;5.10;99.90
5697;DHT22;2873;50.966;7.210;2023-12-07T15:29:16;5.00;99.90
5697;DHT22;2873;50.966;7.210;2023-12-07T15:31:42;4.90;99.90
5697;DHT22;2873;50.966;7.210;2023-12-07T15:34:09;4.80;99.90
5697;DHT22;2873;50.966;7.210;2023-12-07T15:36:35;4.80;99.90
5697;DHT22;2873;50.966;7.210;2023-12-07T15:39:01;4.70;99.90
5697;DHT22;2873;50.966;7.210;2023-12-07T15:41:26;4.70;99.90
5697;DHT22;2873;50.966;7.210;2023-12-07T15:43:52;4.70;99.90
5697;DHT22;2873;50.966;7.210;2023-12-07T15:46:17;4.70;99.90
5697;DHT22;2873;50.966;7.210;2023-12-07T15:48:43;4.60;99.90
5697;DHT22;2873;50.966;7.210;2023-12-07T15:51:08;4.60;99.90
5697;DHT22;2873;50.966;7.210;2023-12-07T15:53:34;4.50;99.90
5697;DHT22;2873;50.966;7.210;2023-12-07T15:55:59;4.40;99.90
5697;DHT22;2873;50.966;7.210;2023-12-07T15:58:25;4.50;99.90
5697;DHT22;2873;50.966;7.210;2023-12-07T16:00:50;4.40;99.90
5697;DHT22;2873;50.966;7.210;2023-12-07T16:03:15;4.40;99.90
5697;DHT22;2873;50.966;7.210;2023-12-07T16:05:41;4.20;99.90
5697;DHT22;2873;50.966;7.210;2023-12-07T16:08:07;4.20;99.90
5697;DHT22;2873;50.966;7.210;2023-12-07T16:10:32;4.20;99.90